Time;durP1;ratioP1;P1;durP2;ratioP2;P2;SDS_P1;SDS_P2;PMS_P1;PMS_P2;Temp;Humidity;BMP_temperature;BMP_pressure;BME280_temperature;BME280_humidity;BME280_pressure;Samples;Min_cycle;Max_cycle;Signal;HPM_P1;HPM_P2
2022/01/14 00:00:39;;;;;;;14.37;3.20;;;;;;;10.69;nan;102467.22;4848277;29;20450;-91
2022/01/14 00:03:07;;;;;;;10.07;2.90;;;;;;;10.68;nan;102471.81;4859809;29;20454;-90
2022/01/14 00:05:38;;;;;;;8.13;2.00;;;;;;;10.69;nan;102462.59;4869685;29;21093;-90
2022/01/14 00:08:09;;;;;;;8.33;2.80;;;;;;;10.69;nan;102465.34;4847610;29;20460;-91
2022/01/14 00:10:41;;;;;;;11.67;3.20;;;;;;;10.68;nan;102465.47;4847310;29;20488;-91
2022/01/14 00:13:36;;;;;;;8.47;2.47;;;;;;;10.65;nan;102466.66;4857397;29;20455;-90
2022/01/14 00:15:58;;;;;;;11.50;2.73;;;;;;;10.64;nan;102464.91;4862379;29;20955;-90
2022/01/14 00:18:27;;;;;;;11.93;2.60;;;;;;;10.65;nan;102471.25;4877673;29;20451;-90
2022/01/14 00:20:56;;;;;;;12.37;3.23;;;;;;;10.66;nan;102475.72;4832230;29;20448;-89
2022/01/14 00:23:35;;;;;;;16.80;3.00;;;;;;;10.55;nan;102457.66;4803097;29;20514;-90
2022/01/14 00:31:52;;;;;;;15.83;2.30;;;;;;;10.58;nan;102471.00;4805967;29;20457;-90
2022/01/14 00:34:25;;;;;;;9.77;3.20;;;;;;;10.51;nan;102458.09;4806505;29;20547;-91
2022/01/14 00:36:55;;;;;;;14.90;2.77;;;;;;;10.54;nan;102468.72;4777220;29;20559;-90
2022/01/14 00:39:24;;;;;;;8.93;3.30;;;;;;;10.44;nan;102446.03;4809116;29;20456;-91
2022/01/14 00:41:53;;;;;;;9.70;2.87;;;;;;;10.53;nan;102477.94;4809544;29;20502;-91
2022/01/14 00:44:21;;;;;;;10.50;3.20;;;;;;;10.47;nan;102471.19;4794358;29;20525;-91
2022/01/14 00:46:49;;;;;;;13.80;2.70;;;;;;;10.45;nan;102469.63;4809500;29;20465;-91
2022/01/14 00:49:20;;;;;;;10.30;3.23;;;;;;;10.37;nan;102454.00;4894568;29;20495;-90
2022/01/14 00:51:51;;;;;;;9.27;2.67;;;;;;;10.43;nan;102457.97;4880647;29;20469;-90
2022/01/14 00:54:24;;;;;;;9.03;3.20;;;;;;;10.38;nan;102453.84;4848096;29;20456;-90
2022/01/14 00:59:39;;;;;;;8.80;2.77;;;;;;;10.28;nan;102436.63;4854454;29;20947;-91
2022/01/14 01:02:10;;;;;;;14.17;2.00;;;;;;;10.32;nan;102440.78;4862416;29;20977;-90
2022/01/14 01:04:40;;;;;;;9.97;2.30;;;;;;;10.34;nan;102452.41;4831669;29;20452;-90
2022/01/14 01:07:12;;;;;;;15.33;2.87;;;;;;;10.29;nan;102438.34;4831843;29;20464;-90
2022/01/14 01:09:47;;;;;;;10.07;2.40;;;;;;;10.32;nan;102442.66;4846813;29;20855;-90
2022/01/14 01:15:20;;;;;;;7.23;1.67;;;;;;;10.28;nan;102436.63;4861352;29;20455;-90
2022/01/14 01:17:48;;;;;;;14.50;2.77;;;;;;;10.32;nan;102434.44;4864622;29;20467;-90
2022/01/14 01:20:21;;;;;;;12.50;2.70;;;;;;;10.28;nan;102431.16;4846367;29;20535;-90
2022/01/14 01:22:54;;;;;;;8.83;2.07;;;;;;;10.26;nan;102422.25;4850006;29;20924;-89
2022/01/14 01:25:28;;;;;;;8.73;1.93;;;;;;;10.29;nan;102426.53;4915279;29;20999;-90
2022/01/14 01:27:58;;;;;;;9.37;2.17;;;;;;;10.29;nan;102429.28;4894568;29;20460;-90
2022/01/14 01:33:00;;;;;;;15.47;2.13;;;;;;;10.29;nan;102427.41;4878362;29;20453;-90
2022/01/14 01:35:30;;;;;;;10.30;2.43;;;;;;;10.32;nan;102431.72;4887066;29;20444;-90
2022/01/14 01:37:58;;;;;;;19.10;2.60;;;;;;;10.24;nan;102413.31;4882867;29;20458;-90
2022/01/14 01:40:27;;;;;;;8.20;2.43;;;;;;;10.21;nan;102413.63;4867791;29;20446;-91
2022/01/14 01:43:02;;;;;;;9.90;2.20;;;;;;;10.28;nan;102425.69;4879402;29;20460;-90
2022/01/14 01:45:33;;;;;;;15.87;2.43;;;;;;;10.34;nan;102429.69;4880306;29;20494;-91
2022/01/14 01:48:01;;;;;;;9.20;2.13;;;;;;;10.33;nan;102423.38;4852486;29;20466;-90
2022/01/14 01:50:29;;;;;;;12.70;2.57;;;;;;;10.30;nan;102418.19;4882796;29;20486;-91
2022/01/14 01:53:00;;;;;;;9.47;1.80;;;;;;;10.28;nan;102417.47;4871371;29;20469;-90
2022/01/14 01:55:27;;;;;;;7.90;2.00;;;;;;;10.29;nan;102418.34;4867635;29;20458;-90
2022/01/14 01:57:56;;;;;;;7.83;2.00;;;;;;;10.30;nan;102431.88;4870747;29;20461;-90
2022/01/14 02:00:26;;;;;;;7.23;2.57;;;;;;;10.26;nan;102422.25;4870777;29;20450;-90
2022/01/14 02:02:57;;;;;;;6.50;2.00;;;;;;;10.28;nan;102425.69;4885119;29;20465;-90
2022/01/14 02:05:27;;;;;;;8.10;2.20;;;;;;;10.24;nan;102424.25;4898482;29;20514;-91
2022/01/14 02:07:55;;;;;;;4.60;1.67;;;;;;;10.22;nan;102420.81;4871010;29;20454;-91
2022/01/14 02:10:24;;;;;;;15.07;2.43;;;;;;;10.24;nan;102424.25;4867636;29;20482;-90
2022/01/14 02:12:59;;;;;;;9.60;1.90;;;;;;;10.13;nan;102415.38;4887896;29;20528;-90
2022/01/14 02:16:01;;;;;;;20.20;3.07;;;;;;;10.20;nan;102411.91;4885979;29;20819;-90
2022/01/14 02:24:09;;;;;;;7.13;1.87;;;;;;;10.14;nan;102423.41;4891146;29;20478;-91
2022/01/14 02:26:49;;;;;;;13.97;2.93;;;;;;;10.16;nan;102423.28;4855918;29;20823;-91
2022/01/14 02:29:19;;;;;;;9.40;2.50;;;;;;;10.12;nan;102422.72;4885432;29;20477;-91
2022/01/14 02:31:46;;;;;;;6.33;2.33;;;;;;;10.08;nan;102415.81;4870968;29;20441;-93
2022/01/14 02:34:15;;;;;;;14.80;2.20;;;;;;;10.11;nan;102425.59;4870279;29;20448;-90
2022/01/14 02:36:45;;;;;;;11.97;2.50;;;;;;;10.07;nan;102411.34;4869057;29;20454;-91
2022/01/14 02:39:17;;;;;;;8.93;2.53;;;;;;;10.07;nan;102414.09;4897662;29;20454;-91
2022/01/14 02:41:48;;;;;;;14.70;3.00;;;;;;;10.05;nan;102413.38;4855848;29;20456;-90
2022/01/14 02:44:27;;;;;;;13.70;2.93;;;;;;;10.05;nan;102414.22;4844478;29;20463;-91
2022/01/14 02:46:58;;;;;;;8.33;2.70;;;;;;;10.07;nan;102419.56;4830734;29;20943;-91
2022/01/14 02:49:29;;;;;;;10.13;2.93;;;;;;;10.10;nan;102427.44;4817477;29;20480;-91
2022/01/14 02:52:02;;;;;;;8.27;2.53;;;;;;;10.04;nan;102428.91;4833408;29;20455;-91
2022/01/14 02:55:02;;;;;;;15.90;3.67;;;;;;;10.01;nan;102428.34;4848688;29;20462;-91
2022/01/14 02:57:30;;;;;;;12.83;3.07;;;;;;;10.01;nan;102436.53;4836119;29;20569;-91
2022/01/14 03:00:00;;;;;;;15.57;3.00;;;;;;;9.90;nan;102415.72;4824798;29;20553;-90
2022/01/14 03:02:30;;;;;;;9.03;2.20;;;;;;;9.93;nan;102431.81;4833411;29;20835;-90
2022/01/14 03:04:59;;;;;;;11.70;2.73;;;;;;;9.91;nan;102430.25;4818098;29;20443;-90
2022/01/14 03:07:28;;;;;;;13.53;2.70;;;;;;;9.91;nan;102438.44;4804283;29;20457;-90
2022/01/14 03:09:57;;;;;;;8.73;2.40;;;;;;;9.90;nan;102431.25;4829276;29;20865;-91
2022/01/14 03:12:28;;;;;;;5.60;2.60;;;;;;;9.81;nan;102422.09;4836535;29;20460;-90
2022/01/14 03:14:57;;;;;;;6.37;2.10;;;;;;;9.85;nan;102428.97;4829300;29;20457;-90
2022/01/14 03:17:28;;;;;;;5.60;1.97;;;;;;;9.85;nan;102430.81;4821790;29;20466;-90
2022/01/14 03:19:59;;;;;;;7.07;1.87;;;;;;;9.81;nan;102421.25;4876523;29;20445;-91
2022/01/14 03:22:35;;;;;;;4.90;1.67;;;;;;;9.85;nan;102428.97;4855308;29;20450;-90
2022/01/14 03:27:52;;;;;;;8.00;2.33;;;;;;;9.74;nan;102409.16;4882448;29;20575;-90
2022/01/14 03:30:20;;;;;;;6.47;1.73;;;;;;;9.83;nan;102432.84;4851587;29;21006;-91
2022/01/14 03:32:49;;;;;;;9.47;2.50;;;;;;;9.83;nan;102430.97;4869123;29;20522;-90
2022/01/14 03:35:18;;;;;;;11.10;2.50;;;;;;;9.78;nan;102416.06;4866688;29;20868;-91
2022/01/14 03:37:50;;;;;;;7.07;3.43;;;;;;;9.84;nan;102423.66;4891836;29;20455;-90
2022/01/14 03:40:20;;;;;;;5.27;1.63;;;;;;;9.82;nan;102428.38;4881756;29;20458;-90
2022/01/14 03:42:49;;;;;;;4.20;1.80;;;;;;;9.79;nan;102425.97;4855188;29;20459;-90
2022/01/14 03:45:19;;;;;;;8.20;2.30;;;;;;;9.73;nan;102418.38;4866478;29;20459;-91
2022/01/14 03:47:49;;;;;;;5.47;2.00;;;;;;;9.73;nan;102413.78;4861294;29;20462;-91
2022/01/14 03:50:18;;;;;;;4.63;1.57;;;;;;;9.69;nan;102412.34;4881490;29;20526;-90
2022/01/14 03:52:48;;;;;;;6.97;1.87;;;;;;;9.74;nan;102412.75;4869550;29;20488;-90
2022/01/14 03:55:17;;;;;;;7.87;2.00;;;;;;;9.72;nan;102405.72;4866236;29;20459;-90
2022/01/14 03:57:46;;;;;;;11.80;2.10;;;;;;;9.70;nan;102412.19;4881476;29;20958;-91
2022/01/14 04:00:18;;;;;;;2.97;1.23;;;;;;;9.67;nan;102408.88;4880853;29;20458;-90
2022/01/14 04:02:47;;;;;;;3.03;1.37;;;;;;;9.67;nan;102407.03;4881374;29;20462;-91
2022/01/14 04:05:16;;;;;;;7.03;1.60;;;;;;;9.66;nan;102401.72;4875779;29;20466;-91
2022/01/14 04:07:46;;;;;;;6.63;1.60;;;;;;;9.69;nan;102405.00;4850565;29;20451;-90
2022/01/14 04:10:13;;;;;;;5.97;1.90;;;;;;;9.65;nan;102405.44;4866239;29;20550;-90
2022/01/14 04:12:47;;;;;;;8.57;1.80;;;;;;;9.63;nan;102402.00;4881581;29;20800;-90
2022/01/14 04:18:13;;;;;;;7.23;1.53;;;;;;;9.68;nan;102411.47;4868418;29;20507;-91
2022/01/14 04:20:47;;;;;;;11.40;2.33;;;;;;;9.68;nan;102410.63;4851961;29;20641;-91
2022/01/14 04:23:25;;;;;;;9.63;2.03;;;;;;;9.73;nan;102412.91;4851544;29;20458;-90
2022/01/14 04:25:54;;;;;;;5.90;2.13;;;;;;;9.72;nan;102414.78;4877856;29;21007;-91
2022/01/14 04:28:23;;;;;;;7.40;1.73;;;;;;;9.68;nan;102400.56;4875909;29;20454;-91
2022/01/14 04:30:58;;;;;;;8.80;2.10;;;;;;;9.69;nan;102405.00;4883878;29;20482;-91
2022/01/14 04:33:29;;;;;;;6.30;1.70;;;;;;;9.68;nan;102406.00;4885072;29;20540;-91
2022/01/14 04:36:01;;;;;;;5.37;1.60;;;;;;;9.69;nan;102407.75;4866413;29;20440;-90
2022/01/14 04:38:30;;;;;;;5.57;1.70;;;;;;;9.69;nan;102406.88;4869374;29;20450;-91
2022/01/14 04:40:59;;;;;;;1.90;1.10;;;;;;;9.69;nan;102410.47;4869187;29;20957;-91
2022/01/14 04:43:29;;;;;;;7.30;1.53;;;;;;;9.68;nan;102406.00;4869918;29;20460;-91
2022/01/14 04:48:35;;;;;;;5.67;1.60;;;;;;;9.63;nan;102391.94;4859092;29;20526;-91
2022/01/14 04:51:06;;;;;;;6.00;1.60;;;;;;;9.62;nan;102401.13;4850074;29;20487;-90
2022/01/14 04:53:34;;;;;;;4.83;1.73;;;;;;;9.59;nan;102395.13;4876439;29;20463;-90
2022/01/14 04:56:03;;;;;;;3.17;1.40;;;;;;;9.63;nan;102397.41;4868708;29;20486;-91
2022/01/14 04:58:39;;;;;;;5.63;1.73;;;;;;;9.63;nan;102407.44;4846919;29;20466;-90
2022/01/14 05:01:16;;;;;;;3.20;1.10;;;;;;;9.64;nan;102401.84;4846761;29;20455;-91
2022/01/14 05:03:44;;;;;;;6.83;1.60;;;;;;;9.62;nan;102379.28;4861518;29;20828;-91
2022/01/14 05:06:13;;;;;;;8.77;1.90;;;;;;;9.64;nan;102396.38;4872652;29;20845;-91
2022/01/14 05:08:41;;;;;;;6.47;1.40;;;;;;;9.66;nan;102383.47;4861683;29;20455;-91
2022/01/14 05:13:47;;;;;;;12.93;1.90;;;;;;;9.74;nan;102390.91;4875804;29;20946;-90
2022/01/14 05:16:21;;;;;;;10.63;2.73;;;;;;;9.73;nan;102393.78;4867793;29;20522;-92
2022/01/14 05:18:49;;;;;;;5.43;1.30;;;;;;;9.78;nan;102389.63;4878474;29;20466;-91
2022/01/14 05:21:20;;;;;;;3.10;1.30;;;;;;;9.83;nan;102391.88;4864993;29;20950;-91
2022/01/14 05:23:48;;;;;;;5.03;1.17;;;;;;;9.87;nan;102394.19;4864908;29;20462;-91
2022/01/14 05:26:26;;;;;;;9.53;1.70;;;;;;;9.88;nan;102395.91;4849551;29;20849;-91
2022/01/14 05:28:54;;;;;;;8.57;2.00;;;;;;;9.85;nan;102392.59;4882556;29;20471;-91
2022/01/14 05:31:40;;;;;;;9.03;1.50;;;;;;;9.84;nan;102388.16;4849085;29;20546;-91
2022/01/14 05:34:09;;;;;;;8.57;2.13;;;;;;;9.87;nan;102387.84;4895708;29;20450;-90
2022/01/14 05:36:38;;;;;;;3.20;1.47;;;;;;;9.88;nan;102395.03;4891249;29;20989;-90
2022/01/14 05:39:07;;;;;;;7.87;1.70;;;;;;;9.89;nan;102397.63;4881376;29;21034;-90
2022/01/14 05:41:35;;;;;;;4.07;1.83;;;;;;;9.87;nan;102385.13;4864899;29;20439;-90
2022/01/14 05:44:04;;;;;;;17.33;1.73;;;;;;;9.85;nan;102387.13;4876669;29;20827;-91
2022/01/14 05:46:31;;;;;;;5.67;1.70;;;;;;;9.81;nan;102383.88;4863821;29;20969;-91
2022/01/14 05:48:59;;;;;;;1.97;1.20;;;;;;;9.88;nan;102389.56;4864082;29;20455;-91
2022/01/14 05:51:27;;;;;;;5.00;1.80;;;;;;;9.82;nan;102391.03;4864315;29;20478;-91
2022/01/14 05:53:56;;;;;;;7.50;1.80;;;;;;;9.86;nan;102392.44;4893299;29;20446;-91
2022/01/14 05:56:25;;;;;;;10.83;1.90;;;;;;;9.84;nan;102388.16;4865780;29;20823;-92
2022/01/14 05:58:54;;;;;;;4.37;1.60;;;;;;;9.74;nan;102373.69;4851932;29;20455;-91
2022/01/14 06:01:30;;;;;;;7.50;1.30;;;;;;;9.79;nan;102385.03;4849321;29;20460;-90
2022/01/14 06:04:02;;;;;;;5.60;1.70;;;;;;;9.83;nan;102405.53;4865308;29;20537;-91
2022/01/14 06:06:30;;;;;;;4.13;1.27;;;;;;;9.82;nan;102396.47;4879298;29;20467;-91
2022/01/14 06:09:00;;;;;;;4.60;1.70;;;;;;;9.79;nan;102393.22;4863945;29;20455;-91
2022/01/14 06:11:28;;;;;;;12.30;2.83;;;;;;;9.73;nan;102383.75;4872437;29;20482;-90
2022/01/14 06:14:00;;;;;;;5.00;1.93;;;;;;;9.79;nan;102395.94;4877068;29;20488;-90
2022/01/14 06:16:29;;;;;;;4.30;2.13;;;;;;;9.76;nan;102398.97;4864105;29;20810;-90
2022/01/14 06:19:01;;;;;;;7.57;1.87;;;;;;;9.73;nan;102396.53;4849477;29;20462;-91
2022/01/14 06:21:32;;;;;;;7.70;1.70;;;;;;;9.72;nan;102392.06;4836536;29;20456;-91
2022/01/14 06:24:00;;;;;;;7.93;1.80;;;;;;;9.69;nan;102385.03;4838985;29;20936;-91
2022/01/14 06:26:28;;;;;;;6.60;1.50;;;;;;;9.68;nan;102403.28;4811081;29;20557;-90
2022/01/14 06:28:57;;;;;;;9.87;1.97;;;;;;;9.62;nan;102390.22;4855749;29;20448;-91
2022/01/14 06:31:26;;;;;;;6.60;1.50;;;;;;;9.68;nan;102406.00;4844786;29;20528;-90
2022/01/14 06:33:57;;;;;;;5.60;1.60;;;;;;;9.63;nan;102391.06;4858914;29;20515;-91
2022/01/14 06:36:26;;;;;;;4.97;1.83;;;;;;;9.67;nan;102401.56;4786850;29;20974;-90
2022/01/14 06:39:02;;;;;;;7.83;2.60;;;;;;;9.70;nan;102405.88;4768928;30;20469;-91
2022/01/14 06:41:34;;;;;;;6.30;1.50;;;;;;;9.68;nan;102403.28;4760361;30;20816;-91
2022/01/14 06:44:16;;;;;;;8.93;2.50;;;;;;;9.69;nan;102406.88;4773180;30;20460;-90
2022/01/14 06:46:47;;;;;;;11.87;1.47;;;;;;;9.71;nan;102404.88;4823060;29;20456;-90
2022/01/14 06:49:42;;;;;;;10.83;3.13;;;;;;;9.67;nan;102397.97;4799871;29;20448;-91
2022/01/14 06:52:26;;;;;;;6.57;1.50;;;;;;;9.67;nan;102403.44;4795142;29;20484;-91
2022/01/14 06:55:02;;;;;;;6.03;1.90;;;;;;;9.66;nan;102407.16;4867385;29;20466;-91
2022/01/14 06:57:31;;;;;;;8.50;1.50;;;;;;;9.59;nan;102398.72;4863830;29;20459;-92
2022/01/14 07:00:10;;;;;;;8.63;2.60;;;;;;;9.57;nan;102403.47;4872546;29;20458;-92
2022/01/14 07:02:37;;;;;;;3.40;1.30;;;;;;;9.64;nan;102414.63;4897494;29;20465;-92
2022/01/14 07:05:11;;;;;;;5.87;1.60;;;;;;;9.64;nan;102420.97;4867153;29;20451;-92
2022/01/14 07:07:40;;;;;;;7.47;1.30;;;;;;;9.65;nan;102422.69;4892545;29;20977;-92
2022/01/14 07:10:13;;;;;;;6.80;3.00;;;;;;;9.62;nan;102411.22;4868391;29;20523;-92
2022/01/14 07:12:42;;;;;;;7.70;1.60;;;;;;;9.63;nan;102424.69;4867073;29;20477;-92
2022/01/14 07:15:14;;;;;;;8.13;1.40;;;;;;;9.57;nan;102408.06;4863673;29;20514;-92
2022/01/14 07:17:44;;;;;;;9.23;2.03;;;;;;;9.62;nan;102420.25;4795438;29;20462;-92
2022/01/14 07:20:15;;;;;;;8.63;1.87;;;;;;;9.64;nan;102434.59;4810039;29;20457;-92
2022/01/14 07:22:48;;;;;;;8.53;2.03;;;;;;;9.69;nan;102437.75;4811236;29;20460;-92
2022/01/14 07:25:17;;;;;;;5.60;1.67;;;;;;;9.64;nan;102425.56;4825471;29;20481;-92
2022/01/14 07:27:45;;;;;;;3.70;1.10;;;;;;;9.65;nan;102430.88;4810396;29;20453;-92
2022/01/14 07:30:15;;;;;;;12.80;2.00;;;;;;;9.56;nan;102412.66;4825387;29;20444;-92
2022/01/14 07:32:44;;;;;;;2.70;1.47;;;;;;;9.63;nan;102419.22;4810491;29;20494;-92
2022/01/14 07:35:13;;;;;;;4.13;1.57;;;;;;;9.65;nan;102427.28;4823985;29;20949;-92
2022/01/14 07:37:41;;;;;;;7.70;1.77;;;;;;;9.67;nan;102434.31;4817506;29;20444;-92
2022/01/14 07:40:11;;;;;;;2.73;1.40;;;;;;;9.69;nan;102440.50;4799094;29;20449;-91
2022/01/14 07:42:39;;;;;;;5.27;1.47;;;;;;;9.70;nan;102431.31;4843979;29;20439;-92
2022/01/14 07:45:08;;;;;;;8.67;1.53;;;;;;;9.61;nan;102421.28;4813882;29;20456;-91
2022/01/14 07:47:37;;;;;;;7.33;2.27;;;;;;;9.65;nan;102433.59;4843246;29;20852;-91
2022/01/14 07:50:09;;;;;;;8.23;2.10;;;;;;;9.68;nan;102444.22;4866928;29;20942;-89
2022/01/14 07:52:37;;;;;;;8.13;2.27;;;;;;;9.63;nan;102435.63;4899996;29;20481;-92
2022/01/14 07:55:06;;;;;;;10.80;1.63;;;;;;;9.65;nan;102439.06;4866253;29;20965;-92
2022/01/14 07:57:37;;;;;;;5.90;1.80;;;;;;;9.69;nan;102456.88;4880589;29;20438;-92
2022/01/14 08:00:07;;;;;;;4.87;1.80;;;;;;;9.65;nan;102444.53;4884361;29;20453;-92
2022/01/14 08:02:37;;;;;;;10.20;2.00;;;;;;;9.65;nan;102443.66;4897967;29;20930;-92
2022/01/14 08:05:09;;;;;;;5.97;1.90;;;;;;;9.64;nan;102453.72;4882328;29;20451;-92
2022/01/14 08:07:45;;;;;;;10.90;2.20;;;;;;;9.63;nan;102456.59;4899883;29;20431;-92
2022/01/14 08:10:14;;;;;;;8.30;1.77;;;;;;;9.68;nan;102460.63;4897310;29;20446;-93
2022/01/14 08:12:42;;;;;;;3.63;1.67;;;;;;;9.75;nan;102462.78;4865617;29;20475;-92
2022/01/14 08:15:10;;;;;;;8.10;2.00;;;;;;;9.70;nan;102457.75;4896380;29;20458;-91
2022/01/14 08:17:40;;;;;;;15.80;1.93;;;;;;;9.73;nan;102462.06;4865880;29;20435;-91
2022/01/14 08:20:14;;;;;;;6.67;1.90;;;;;;;9.65;nan;102454.56;4883099;29;20850;-92
2022/01/14 08:22:41;;;;;;;10.87;2.37;;;;;;;9.77;nan;102468.94;4879873;29;20447;-92
2022/01/14 08:25:15;;;;;;;6.93;1.93;;;;;;;9.85;nan;102474.53;4861357;29;20862;-87
2022/01/14 08:27:43;;;;;;;5.93;1.50;;;;;;;9.85;nan;102485.44;4831938;29;20462;-87
2022/01/14 08:41:29;;;;;;;7.43;1.50;;;;;;;9.99;nan;102476.81;4875597;29;20424;-87
2022/01/14 08:43:58;;;;;;;4.77;1.27;;;;;;;10.02;nan;102473.75;4869947;29;20463;-87
2022/01/14 08:46:46;;;;;;;5.43;1.70;;;;;;;10.22;nan;102491.00;4860891;29;20786;-87
2022/01/14 08:49:14;;;;;;;3.90;1.83;;;;;;;10.17;nan;102477.78;4869201;29;20459;-88
2022/01/14 08:51:55;;;;;;;8.77;1.63;;;;;;;10.28;nan;102484.94;4846063;29;20906;-88
2022/01/14 09:09:26;;;;;;;4.53;1.63;;;;;;;10.72;nan;102511.53;4867927;29;20512;-87
2022/01/14 09:11:55;;;;;;;5.70;1.70;;;;;;;10.77;nan;102508.34;4896268;29;20997;-88
2022/01/14 09:14:25;;;;;;;5.27;1.43;;;;;;;10.90;nan;102519.78;4857091;29;20455;-88
2022/01/14 09:16:52;;;;;;;11.10;2.13;;;;;;;10.96;nan;102510.97;4851532;29;20466;-88
2022/01/14 09:19:25;;;;;;;3.53;1.47;;;;;;;11.14;nan;102521.09;4861894;29;20455;-88
2022/01/14 09:21:53;;;;;;;2.03;1.00;;;;;;;11.31;nan;102528.47;4845701;29;20947;-87
2022/01/14 09:24:42;;;;;;;10.10;1.90;;;;;;;11.44;nan;102523.44;4863022;29;20432;-88
2022/01/14 09:27:11;;;;;;;8.33;2.37;;;;;;;11.61;nan;102525.31;4867016;29;20460;-88
2022/01/14 09:29:38;;;;;;;5.20;2.23;;;;;;;11.75;nan;102512.94;4877011;29;20472;-87
2022/01/14 09:32:09;;;;;;;7.80;1.80;;;;;;;11.92;nan;102508.50;4884301;29;20492;-90
2022/01/14 09:34:36;;;;;;;7.43;2.00;;;;;;;12.08;nan;102511.38;4900794;29;20464;-87
2022/01/14 09:37:06;;;;;;;11.00;1.93;;;;;;;12.25;nan;102524.16;4879461;29;21013;-87
2022/01/14 09:39:36;;;;;;;10.07;2.60;;;;;;;12.36;nan;102520.28;4898515;29;20469;-86
2022/01/14 09:42:07;;;;;;;8.53;1.73;;;;;;;12.40;nan;102511.56;4882212;29;20458;-87
2022/01/14 09:44:35;;;;;;;11.70;1.90;;;;;;;12.49;nan;102503.41;4890413;29;20452;-88
2022/01/14 09:47:04;;;;;;;7.17;1.53;;;;;;;12.58;nan;102514.25;4905460;29;20446;-88
2022/01/14 09:49:34;;;;;;;3.83;1.73;;;;;;;12.69;nan;102513.13;4867572;29;20945;-89
2022/01/14 09:52:03;;;;;;;9.57;1.60;;;;;;;12.77;nan;102503.00;4896662;29;20545;-88
2022/01/14 09:54:32;;;;;;;5.50;1.90;;;;;;;12.82;nan;102510.75;4866549;29;20458;-87
2022/01/14 09:56:59;;;;;;;4.40;1.83;;;;;;;12.77;nan;102505.75;4851664;29;20825;-88
2022/01/14 09:59:33;;;;;;;17.50;2.13;;;;;;;12.80;nan;102513.66;4852779;29;20462;-93
2022/01/14 10:02:07;;;;;;;6.13;1.90;;;;;;;12.73;nan;102489.78;4854234;29;20460;-88
2022/01/14 10:04:38;;;;;;;14.17;2.63;;;;;;;12.81;nan;102498.06;4887138;29;20462;-89
2022/01/14 10:07:11;;;;;;;6.13;1.87;;;;;;;12.90;nan;102507.16;4869625;29;20458;-89
2022/01/14 10:09:44;;;;;;;4.77;2.00;;;;;;;12.89;nan;102511.81;4885387;29;20516;-89
2022/01/14 10:12:15;;;;;;;3.10;1.70;;;;;;;12.97;nan;102511.84;4887234;29;20569;-92
2022/01/14 10:14:56;;;;;;;9.60;2.27;;;;;;;13.04;nan;102515.66;4871336;29;20438;-88
2022/01/14 10:18:10;;;;;;;8.67;2.20;;;;;;;13.09;nan;102518.72;4881165;29;20458;-91
2022/01/14 10:20:39;;;;;;;14.73;2.40;;;;;;;13.12;nan;102512.06;4881969;29;20450;-90
2022/01/14 10:23:07;;;;;;;6.10;2.30;;;;;;;13.19;nan;102524.13;4866125;29;20454;-88
2022/01/14 10:25:35;;;;;;;11.83;2.73;;;;;;;13.23;nan;102513.69;4863026;29;20489;-90
2022/01/14 10:28:15;;;;;;;11.97;2.90;;;;;;;13.22;nan;102495.47;4878004;29;20470;-88
2022/01/14 10:30:45;;;;;;;9.50;2.03;;;;;;;13.38;nan;102514.72;4866451;29;20455;-88
2022/01/14 10:33:15;;;;;;;13.43;2.80;;;;;;;13.42;nan;102522.47;4893787;29;20895;-87
2022/01/14 10:35:46;;;;;;;7.87;2.17;;;;;;;13.48;nan;102515.41;4862777;29;20455;-88
2022/01/14 10:38:38;;;;;;;24.90;2.73;;;;;;;13.56;nan;102509.94;4877966;29;20463;-88
2022/01/14 10:41:09;;;;;;;9.50;3.20;;;;;;;13.64;nan;102507.22;4878605;29;20842;-88
2022/01/14 10:43:42;;;;;;;11.10;2.60;;;;;;;13.79;nan;102511.00;4897929;29;20454;-88
2022/01/14 10:46:13;;;;;;;18.70;3.57;;;;;;;13.83;nan;102495.88;4892224;29;20465;-88
2022/01/14 10:48:46;;;;;;;12.00;3.30;;;;;;;13.97;nan;102507.22;4803614;29;20456;-88
2022/01/14 10:51:17;;;;;;;13.93;3.30;;;;;;;14.08;nan;102506.84;4791895;29;20453;-88
2022/01/14 10:53:53;;;;;;;10.00;2.80;;;;;;;14.13;nan;102507.19;4804863;29;20469;-88
2022/01/14 10:56:41;;;;;;;13.00;3.07;;;;;;;14.18;nan;102510.28;4791274;29;20453;-88
2022/01/14 10:59:09;;;;;;;16.63;4.30;;;;;;;14.28;nan;102510.94;4821034;29;20450;-87
2022/01/14 11:01:38;;;;;;;27.70;10.63;;;;;;;14.34;nan;102510.25;4805881;29;20442;-87
2022/01/14 11:04:13;;;;;;;33.43;12.97;;;;;;;14.44;nan;102513.69;4806242;29;20945;-92
2022/01/14 11:06:41;;;;;;;25.30;8.20;;;;;;;14.48;nan;102495.78;4806246;29;20937;-89
2022/01/14 11:09:12;;;;;;;21.87;5.77;;;;;;;14.56;nan;102497.66;4791886;29;21037;-89
2022/01/14 11:11:44;;;;;;;16.60;4.00;;;;;;;14.55;nan;102493.19;4778831;29;20486;-89
2022/01/14 11:14:13;;;;;;;19.10;5.73;;;;;;;14.70;nan;102510.69;4869622;29;20460;-89
2022/01/14 11:16:42;;;;;;;17.23;6.63;;;;;;;14.78;nan;102498.78;4888827;29;20462;-89
2022/01/14 11:19:13;;;;;;;22.03;7.67;;;;;;;14.89;nan;102495.63;4890709;29;20454;-89
2022/01/14 11:24:32;;;;;;;60.70;15.47;;;;;;;15.05;nan;102508.47;4895434;29;20461;-88
2022/01/14 11:27:14;;;;;;;19.60;6.90;;;;;;;15.05;nan;102503.81;4877406;29;20465;-89
2022/01/14 11:29:44;;;;;;;15.43;5.47;;;;;;;15.00;nan;102495.25;4880689;29;20474;-89
2022/01/14 11:32:12;;;;;;;16.70;4.60;;;;;;;15.09;nan;102510.69;4881525;29;20494;-89
2022/01/14 11:34:50;;;;;;;19.17;5.90;;;;;;;15.13;nan;102498.28;4866101;29;20523;-89
2022/01/14 11:37:34;;;;;;;21.30;4.70;;;;;;;15.18;nan;102501.34;4881615;29;21073;-88
2022/01/14 11:40:04;;;;;;;16.40;5.00;;;;;;;15.24;nan;102485.09;4882186;29;20489;-89
2022/01/14 11:43:02;;;;;;;13.73;2.90;;;;;;;15.32;nan;102488.69;4865668;29;20514;-89
2022/01/14 11:45:40;;;;;;;13.10;2.50;;;;;;;15.35;nan;102498.47;4894545;29;20527;-89
2022/01/14 11:48:09;;;;;;;13.00;4.07;;;;;;;15.39;nan;102477.81;4882346;29;20989;-89
2022/01/14 11:50:36;;;;;;;13.07;4.67;;;;;;;15.45;nan;102493.56;4880820;29;20498;-89
2022/01/14 11:53:05;;;;;;;22.17;4.73;;;;;;;15.47;nan;102474.97;4881554;29;21013;-89
2022/01/14 11:55:34;;;;;;;10.67;4.00;;;;;;;15.56;nan;102487.69;4873876;29;20461;-89
2022/01/14 11:58:03;;;;;;;10.33;3.20;;;;;;;15.63;nan;102496.06;4899621;29;20529;-88
2022/01/14 12:00:37;;;;;;;17.37;2.60;;;;;;;15.63;nan;102477.63;4884467;29;20949;-88
2022/01/14 12:03:12;;;;;;;14.80;4.73;;;;;;;15.74;nan;102484.63;4881522;29;20456;-88
2022/01/14 12:05:54;;;;;;;20.23;4.70;;;;;;;15.91;nan;102477.06;4827875;29;20460;-88
2022/01/14 12:08:29;;;;;;;18.53;3.57;;;;;;;16.03;nan;102486.56;4827534;29;20860;-88
2022/01/14 12:10:59;;;;;;;10.77;3.00;;;;;;;16.11;nan;102481.00;4842412;29;20529;-88
2022/01/14 12:13:59;;;;;;;12.83;4.33;;;;;;;16.19;nan;102467.09;4827160;29;20499;-88
2022/01/14 12:30:34;;;;;;;15.77;4.63;;;;;;;16.43;nan;102466.84;4861815;29;20549;-89
2022/01/14 12:33:02;;;;;;;9.30;3.57;;;;;;;16.41;nan;102435.81;4883224;29;20489;-89
2022/01/14 12:35:35;;;;;;;8.40;2.43;;;;;;;16.47;nan;102439.72;4868379;29;20454;-89
2022/01/14 12:38:03;;;;;;;14.00;3.67;;;;;;;16.54;nan;102429.63;4854087;29;20457;-89
2022/01/14 12:40:44;;;;;;;8.00;2.33;;;;;;;16.63;nan;102427.59;4884270;29;20825;-89
2022/01/14 12:43:14;;;;;;;12.00;2.70;;;;;;;16.75;nan;102413.13;4870894;29;20510;-89
2022/01/14 12:46:12;;;;;;;7.77;2.40;;;;;;;16.81;nan;102415.13;4867862;29;20980;-89
2022/01/14 12:49:01;;;;;;;11.20;2.03;;;;;;;16.83;nan;102413.03;4895763;29;20456;-89
2022/01/14 12:51:37;;;;;;;12.90;2.53;;;;;;;16.81;nan;102406.00;4903055;29;20955;-89
2022/01/14 12:54:09;;;;;;;17.67;3.30;;;;;;;16.95;nan;102427.19;4869737;29;20469;-89
2022/01/14 12:56:39;;;;;;;13.43;2.50;;;;;;;17.00;nan;102410.03;4901334;29;20941;-89
2022/01/14 12:59:09;;;;;;;10.20;2.77;;;;;;;17.13;nan;102419.31;4896454;29;20999;-89
2022/01/14 13:02:06;;;;;;;12.10;2.73;;;;;;;17.15;nan;102425.50;4899149;29;20457;-90
2022/01/14 13:04:34;;;;;;;6.00;2.33;;;;;;;17.14;nan;102414.63;4863651;29;20450;-89
2022/01/14 13:07:04;;;;;;;4.87;2.07;;;;;;;17.10;nan;102414.19;4848030;29;20451;-88
2022/01/14 13:09:35;;;;;;;10.57;3.63;;;;;;;17.08;nan;102415.44;4863659;29;20534;-89
2022/01/14 13:12:07;;;;;;;16.60;2.70;;;;;;;17.15;nan;102406.16;4851420;29;20451;-89
2022/01/14 13:14:41;;;;;;;15.87;2.93;;;;;;;17.10;nan;102414.19;4829928;29;20880;-89
2022/01/14 13:17:14;;;;;;;8.33;2.43;;;;;;;17.19;nan;102407.47;4848799;29;20458;-89